createdAt,value
2023-05-23T00:01:17.142Z,11.43
2023-05-23T00:03:45.338Z,9.83
2023-05-23T00:06:14.719Z,10.20
2023-05-23T00:08:42.567Z,9.93
2023-05-23T00:11:13.383Z,10.90
2023-05-23T00:13:41.203Z,10.27
2023-05-23T00:16:10.548Z,9.93
2023-05-23T00:18:38.476Z,9.73
2023-05-23T00:21:06.711Z,10.40
2023-05-23T00:23:34.531Z,10.07
2023-05-23T00:26:02.345Z,10.37
2023-05-23T00:28:31.592Z,9.60
2023-05-23T00:30:59.413Z,8.60
2023-05-23T00:33:27.331Z,9.57
2023-05-23T00:35:55.143Z,9.47
2023-05-23T00:38:22.974Z,10.50
2023-05-23T00:40:50.814Z,9.90
2023-05-23T00:43:19.439Z,10.60
2023-05-23T00:45:49.140Z,10.27
2023-05-23T00:48:17.093Z,10.37
2023-05-23T00:50:45.178Z,9.93
2023-05-23T00:53:14.252Z,11.23
2023-05-23T00:55:42.417Z,10.20
2023-05-23T00:58:11.154Z,10.97
2023-05-23T01:00:39.708Z,9.77
2023-05-23T01:03:09.125Z,9.70
2023-05-23T01:05:37.096Z,9.87
2023-05-23T01:08:04.912Z,11.00
2023-05-23T01:10:33.149Z,10.87
2023-05-23T01:13:11.190Z,9.80
2023-05-23T01:15:43.640Z,10.73
2023-05-23T01:18:18.215Z,10.17
2023-05-23T01:20:52.052Z,10.83
2023-05-23T01:23:55.910Z,11.30
2023-05-23T01:26:35.015Z,10.93
2023-05-23T01:29:12.033Z,11.00
2023-05-23T01:31:44.611Z,9.93
2023-05-23T01:34:14.753Z,11.10
2023-05-23T01:36:44.373Z,9.90
2023-05-23T01:39:12.461Z,10.57
2023-05-23T01:41:41.018Z,10.40
2023-05-23T01:44:10.505Z,10.73
2023-05-23T01:46:40.199Z,10.20
2023-05-23T01:49:10.724Z,10.77
2023-05-23T01:51:39.267Z,10.60
2023-05-23T01:54:07.656Z,10.43
2023-05-23T01:56:35.962Z,10.50
2023-05-23T01:59:04.284Z,10.03
2023-05-23T02:01:35.129Z,9.80
2023-05-23T02:04:03.016Z,9.87
2023-05-23T02:06:31.745Z,9.37
2023-05-23T02:08:59.738Z,9.70
2023-05-23T02:11:27.880Z,10.30
2023-05-23T02:13:55.673Z,9.23
2023-05-23T02:16:26.163Z,10.77
2023-05-23T02:18:56.298Z,10.60
2023-05-23T02:21:24.278Z,10.43
2023-05-23T02:23:52.185Z,10.37
2023-05-23T02:26:20.150Z,10.67
2023-05-23T02:28:47.990Z,10.97
2023-05-23T02:31:17.324Z,9.73
2023-05-23T02:33:45.301Z,9.53
2023-05-23T02:36:14.511Z,10.73
2023-05-23T02:38:42.357Z,11.00
2023-05-23T02:41:10.165Z,11.30
2023-05-23T02:43:39.279Z,9.80
2023-05-23T02:46:07.176Z,11.37
2023-05-23T02:48:35.077Z,10.17
2023-05-23T02:51:03.065Z,10.90
2023-05-23T02:53:32.278Z,10.03
2023-05-23T02:56:00.180Z,11.33
2023-05-23T02:58:28.027Z,10.87
2023-05-23T03:00:55.872Z,10.10
2023-05-23T03:03:23.734Z,9.47
2023-05-23T03:05:51.768Z,10.00
2023-05-23T03:08:19.651Z,9.63
2023-05-23T03:10:48.967Z,10.93
2023-05-23T03:13:17.237Z,12.20
2023-05-23T03:15:46.332Z,11.83
2023-05-23T03:18:14.304Z,11.17
2023-05-23T03:20:42.388Z,10.93
2023-05-23T03:23:10.390Z,10.97
2023-05-23T03:25:38.699Z,10.33
2023-05-23T03:28:08.075Z,10.67
2023-05-23T03:30:36.170Z,10.60
2023-05-23T03:33:04.400Z,10.97
2023-05-23T03:35:32.440Z,10.03
2023-05-23T03:38:00.444Z,10.47
2023-05-23T03:40:28.408Z,10.30
2023-05-23T03:43:07.441Z,11.07
2023-05-23T03:45:36.251Z,12.23
2023-05-23T03:48:04.332Z,11.70
2023-05-23T03:50:32.337Z,11.80
2023-05-23T03:53:00.318Z,11.43
2023-05-23T03:55:28.332Z,12.07
2023-05-23T03:57:56.303Z,12.23
2023-05-23T04:00:26.425Z,12.30
2023-05-23T04:02:54.514Z,12.27
2023-05-23T04:05:22.797Z,11.50
2023-05-23T04:07:51.670Z,11.13
2023-05-23T04:10:19.775Z,10.70
2023-05-23T04:12:48.081Z,11.60
2023-05-23T04:15:18.094Z,11.27
2023-05-23T04:17:47.475Z,12.30
2023-05-23T04:20:15.542Z,13.20
2023-05-23T04:22:43.390Z,12.80
2023-05-23T04:25:11.646Z,13.70
2023-05-23T04:27:40.710Z,14.43
2023-05-23T04:30:10.305Z,12.63
2023-05-23T04:32:38.314Z,12.33
2023-05-23T04:35:08.753Z,12.57
2023-05-23T04:37:37.849Z,12.70
2023-05-23T04:40:07.177Z,12.77
2023-05-23T04:42:36.089Z,11.70
2023-05-23T04:45:04.029Z,12.47
2023-05-23T04:47:37.100Z,10.77
2023-05-23T04:50:07.302Z,12.30
2023-05-23T04:52:35.188Z,12.33
2023-05-23T04:55:03.654Z,12.43
2023-05-23T04:57:31.776Z,14.13
2023-05-23T04:59:59.593Z,13.73
2023-05-23T05:02:28.054Z,12.57
2023-05-23T05:04:55.913Z,13.37
2023-05-23T05:07:25.107Z,12.80
2023-05-23T05:09:52.933Z,12.13
2023-05-23T05:12:20.771Z,11.73
2023-05-23T05:14:48.694Z,12.57
2023-05-23T05:17:16.944Z,11.77
2023-05-23T05:19:44.929Z,12.33
2023-05-23T05:22:13.227Z,14.23
2023-05-23T05:24:42.401Z,12.53
2023-05-23T05:27:11.871Z,11.80
2023-05-23T05:29:39.774Z,12.97
2023-05-23T05:32:09.102Z,14.37
2023-05-23T05:34:37.955Z,12.23
2023-05-23T05:37:06.252Z,12.70
2023-05-23T05:39:34.139Z,12.30
2023-05-23T05:42:04.376Z,12.47
2023-05-23T05:44:32.315Z,12.23
2023-05-23T05:47:00.148Z,11.43
2023-05-23T05:49:28.260Z,12.57
2023-05-23T05:51:56.107Z,11.80
2023-05-23T05:54:23.957Z,13.07
2023-05-23T05:56:51.810Z,11.07
2023-05-23T05:59:20.971Z,11.97
2023-05-23T06:01:51.120Z,11.20
2023-05-23T06:04:19.242Z,12.00
2023-05-23T06:06:47.120Z,13.07
2023-05-23T06:09:14.991Z,14.80
2023-05-23T06:11:42.845Z,15.77
2023-05-23T06:14:10.792Z,15.87
2023-05-23T06:16:40.562Z,19.73
2023-05-23T06:19:09.265Z,23.53
2023-05-23T06:21:37.274Z,25.37
2023-05-23T06:24:05.346Z,26.87
2023-05-23T06:26:33.573Z,30.63
2023-05-23T06:29:01.418Z,30.13
2023-05-23T06:31:29.275Z,30.77
2023-05-23T06:33:58.458Z,33.17
2023-05-23T06:36:26.460Z,31.50
2023-05-23T06:38:54.293Z,33.27
2023-05-23T06:41:22.664Z,34.20
2023-05-23T06:43:50.581Z,34.80
2023-05-23T06:46:18.576Z,32.47
2023-05-23T06:48:46.585Z,34.10
2023-05-23T06:51:15.943Z,36.20
2023-05-23T06:53:43.835Z,36.90
2023-05-23T06:56:11.727Z,36.73
2023-05-23T06:58:39.583Z,38.00
2023-05-23T07:01:07.427Z,37.50
2023-05-23T07:03:35.301Z,37.87
2023-05-23T07:06:03.166Z,40.93
2023-05-23T07:08:32.380Z,41.30
2023-05-23T07:11:00.561Z,40.63
2023-05-23T07:13:28.435Z,44.13
2023-05-23T07:15:56.988Z,40.70
2023-05-23T07:18:24.880Z,40.53
2023-05-23T07:20:52.708Z,39.80
2023-05-23T07:23:20.763Z,38.87
2023-05-23T07:26:01.042Z,38.57
2023-05-23T07:28:30.180Z,37.80
2023-05-23T07:30:58.733Z,37.03
2023-05-23T07:33:26.775Z,37.13
2023-05-23T07:35:54.616Z,35.30
2023-05-23T07:38:22.462Z,36.97
2023-05-23T07:40:59.251Z,36.67
2023-05-23T07:43:35.027Z,36.73
2023-05-23T07:46:02.894Z,34.97
2023-05-23T07:48:32.091Z,36.63
2023-05-23T07:51:00.056Z,34.97
2023-05-23T07:53:27.896Z,36.13
2023-05-23T07:55:57.606Z,35.17
2023-05-23T07:58:25.447Z,36.73
2023-05-23T08:00:53.577Z,35.37
2023-05-23T08:03:21.467Z,35.77
2023-05-23T08:05:49.968Z,36.30
2023-05-23T08:08:18.018Z,35.87
2023-05-23T08:10:47.076Z,37.00
2023-05-23T08:13:16.444Z,37.47
2023-05-23T08:15:44.388Z,36.90
2023-05-23T08:18:12.972Z,34.80
2023-05-23T08:20:41.108Z,35.67
2023-05-23T08:23:09.171Z,33.83
2023-05-23T08:25:37.036Z,33.63
2023-05-23T08:28:04.939Z,34.00
2023-05-23T08:30:34.614Z,31.33
2023-05-23T08:33:04.881Z,31.87
2023-05-23T08:35:35.212Z,30.83
2023-05-23T08:38:03.475Z,30.97
2023-05-23T08:40:32.840Z,29.47
2023-05-23T08:43:00.893Z,28.50
2023-05-23T08:45:30.355Z,30.47
2023-05-23T08:48:02.263Z,28.67
2023-05-23T08:50:31.648Z,29.43
2023-05-23T08:53:00.407Z,28.17
2023-05-23T08:55:29.925Z,27.97
2023-05-23T08:58:00.264Z,27.97
2023-05-23T09:00:29.243Z,26.60
2023-05-23T09:02:58.772Z,27.50
2023-05-23T09:05:27.862Z,26.87
2023-05-23T09:07:56.782Z,28.37
2023-05-23T09:10:24.887Z,28.93
2023-05-23T09:12:52.791Z,28.73
2023-05-23T09:15:22.353Z,27.60
2023-05-23T09:17:50.486Z,27.67
2023-05-23T09:20:19.847Z,30.13
2023-05-23T09:22:48.913Z,28.53
2023-05-23T09:25:17.393Z,27.87
2023-05-23T09:27:48.182Z,27.97
2023-05-23T09:30:16.763Z,28.10
2023-05-23T09:32:57.806Z,27.73
2023-05-23T09:35:30.140Z,26.80
2023-05-23T09:37:59.262Z,27.93
2023-05-23T09:40:31.956Z,27.17
2023-05-23T09:43:04.080Z,26.40
2023-05-23T09:45:33.286Z,26.97
2023-05-23T09:48:01.688Z,25.47
2023-05-23T09:50:34.644Z,25.60
2023-05-23T09:53:02.554Z,24.30
2023-05-23T09:55:30.461Z,25.73
2023-05-23T09:58:00.794Z,25.77
2023-05-23T10:00:29.581Z,24.60
2023-05-23T10:03:11.489Z,22.73
2023-05-23T10:05:45.203Z,22.03
2023-05-23T10:08:17.145Z,21.03
2023-05-23T10:11:34.319Z,21.87
2023-05-23T10:14:04.478Z,21.40
2023-05-23T10:16:40.990Z,19.33
2023-05-23T10:19:21.732Z,19.77
2023-05-23T10:21:55.427Z,19.43
2023-05-23T10:24:25.515Z,18.20
2023-05-23T10:26:54.174Z,18.20
2023-05-23T10:29:22.821Z,16.57
2023-05-23T10:31:52.000Z,16.67
2023-05-23T10:34:28.905Z,16.47
2023-05-23T10:37:02.546Z,16.37
2023-05-23T10:39:47.822Z,15.67
2023-05-23T10:42:21.776Z,15.20
2023-05-23T10:44:49.738Z,15.60
2023-05-23T10:47:28.244Z,15.20
2023-05-23T10:49:56.946Z,13.80
2023-05-23T10:52:27.639Z,14.13
2023-05-23T10:54:56.891Z,14.47
2023-05-23T10:57:27.947Z,14.63
2023-05-23T10:59:56.165Z,13.93
2023-05-23T11:02:27.799Z,13.67
2023-05-23T11:05:20.087Z,13.13
2023-05-23T11:08:08.826Z,14.20
2023-05-23T11:10:59.731Z,12.93
2023-05-23T11:13:47.735Z,13.23
2023-05-23T11:16:29.081Z,13.97
2023-05-23T11:19:26.152Z,13.80
2023-05-23T11:21:56.128Z,14.07
2023-05-23T11:24:45.803Z,13.30
2023-05-23T11:27:13.964Z,11.60
2023-05-23T11:29:41.848Z,13.43
2023-05-23T11:32:17.267Z,14.13
2023-05-23T11:34:45.371Z,13.60
2023-05-23T11:37:13.775Z,11.30
2023-05-23T11:39:42.946Z,12.87
2023-05-23T11:42:10.836Z,13.70
2023-05-23T11:44:38.687Z,13.20
2023-05-23T11:47:08.411Z,13.03
2023-05-23T11:49:38.760Z,14.13
2023-05-23T11:52:07.569Z,12.77
2023-05-23T11:54:35.724Z,11.97
2023-05-23T11:57:05.749Z,13.20
2023-05-23T11:59:34.919Z,11.73
2023-05-23T12:02:03.601Z,11.40
2023-05-23T12:04:31.599Z,11.30
2023-05-23T12:06:59.526Z,11.77
2023-05-23T12:09:27.410Z,12.43
2023-05-23T12:11:55.317Z,12.87
2023-05-23T12:14:24.567Z,11.30
2023-05-23T12:16:54.893Z,12.23
2023-05-23T12:19:22.945Z,11.57
2023-05-23T12:21:51.236Z,12.63
2023-05-23T12:24:20.215Z,11.07
2023-05-23T12:26:52.510Z,11.23
2023-05-23T12:29:22.232Z,11.77
2023-05-23T12:31:52.550Z,11.93
2023-05-23T12:34:23.296Z,11.77
2023-05-23T12:36:57.242Z,10.70
2023-05-23T12:39:33.713Z,10.73
2023-05-23T12:42:09.434Z,10.30
2023-05-23T12:44:37.380Z,10.80
2023-05-23T12:47:07.055Z,10.33
2023-05-23T12:49:34.958Z,11.43
2023-05-23T12:52:02.823Z,9.80
2023-05-23T12:54:30.860Z,10.63
2023-05-23T12:56:58.917Z,11.20
2023-05-23T12:59:26.739Z,9.67
2023-05-23T13:01:55.030Z,9.43
2023-05-23T13:04:24.186Z,11.30
2023-05-23T13:06:52.850Z,9.57
2023-05-23T13:09:20.753Z,9.70
2023-05-23T13:11:48.597Z,9.07
2023-05-23T13:14:16.440Z,8.30
2023-05-23T13:16:45.611Z,9.30
2023-05-23T13:19:13.507Z,9.70
2023-05-23T13:21:42.830Z,10.47
2023-05-23T13:24:10.684Z,9.83
2023-05-23T13:26:38.599Z,10.17
2023-05-23T13:29:07.181Z,10.77
2023-05-23T13:31:35.145Z,9.83
2023-05-23T13:34:02.980Z,9.87
2023-05-23T13:36:31.689Z,9.37
2023-05-23T13:39:01.235Z,10.03
2023-05-23T13:41:29.179Z,8.53
2023-05-23T13:43:57.493Z,8.97
2023-05-23T13:46:25.397Z,8.47
2023-05-23T13:48:53.242Z,8.43
2023-05-23T13:51:21.084Z,7.93
2023-05-23T13:53:48.950Z,8.03
2023-05-23T13:56:18.123Z,7.50
2023-05-23T13:58:49.373Z,7.57
2023-05-23T14:01:18.027Z,7.10
2023-05-23T14:03:46.116Z,6.30
2023-05-23T14:06:13.955Z,6.60
2023-05-23T14:08:41.843Z,6.37
2023-05-23T14:11:09.679Z,6.50
2023-05-23T14:13:38.852Z,6.07
2023-05-23T14:16:07.057Z,6.37
2023-05-23T14:18:35.061Z,5.87
2023-05-23T14:21:02.970Z,6.03
2023-05-23T14:23:30.947Z,5.73
2023-05-23T14:25:58.755Z,5.83
2023-05-23T14:28:26.561Z,5.27
2023-05-23T14:30:56.512Z,4.90
2023-05-23T14:33:24.458Z,4.67
2023-05-23T14:35:52.744Z,4.80
2023-05-23T14:38:20.796Z,4.90
2023-05-23T14:40:48.880Z,4.73
2023-05-23T14:43:16.848Z,4.90
2023-05-23T14:45:44.927Z,4.40
2023-05-23T14:48:14.538Z,4.83
2023-05-23T14:50:42.537Z,4.37
2023-05-23T14:53:10.766Z,4.00
2023-05-23T14:55:38.779Z,3.97
2023-05-23T14:58:07.122Z,4.00
2023-05-23T15:00:34.937Z,4.07
2023-05-23T15:03:03.370Z,4.27
2023-05-23T15:05:32.685Z,4.80
2023-05-23T15:08:00.550Z,4.07
2023-05-23T15:10:28.400Z,4.00
2023-05-23T15:12:56.566Z,3.80
2023-05-23T15:15:24.441Z,4.10
2023-05-23T15:17:52.707Z,4.73
2023-05-23T15:20:20.540Z,4.00
2023-05-23T15:22:49.697Z,4.63
2023-05-23T15:25:20.379Z,4.53
2023-05-23T15:27:52.183Z,3.93
2023-05-23T15:30:20.091Z,4.03
2023-05-23T15:32:48.570Z,4.50
2023-05-23T15:35:18.279Z,4.23
2023-05-23T15:37:48.741Z,4.53
2023-05-23T15:40:16.629Z,4.90
2023-05-23T15:42:46.308Z,3.97
2023-05-23T15:45:14.500Z,4.67
2023-05-23T15:47:42.440Z,4.27
2023-05-23T15:50:12.920Z,4.00
2023-05-23T15:52:42.117Z,3.43
2023-05-23T15:55:11.567Z,3.93
2023-05-23T15:57:39.460Z,3.47
2023-05-23T16:00:08.778Z,4.13
2023-05-23T16:02:36.686Z,3.70
2023-05-23T16:05:04.679Z,3.13
2023-05-23T16:07:32.512Z,3.50
2023-05-23T16:10:00.496Z,3.63
2023-05-23T16:12:31.033Z,3.40
2023-05-23T16:14:59.026Z,3.80
2023-05-23T16:17:26.838Z,3.50
2023-05-23T16:19:54.631Z,3.40
2023-05-23T16:22:22.460Z,3.40
2023-05-23T16:24:50.344Z,3.30
2023-05-23T16:27:18.258Z,3.37
2023-05-23T16:29:47.433Z,3.80
2023-05-23T16:32:16.984Z,3.60
2023-05-23T16:34:48.741Z,3.60
2023-05-23T16:37:20.580Z,3.80
2023-05-23T16:39:48.521Z,3.50
2023-05-23T16:42:16.348Z,3.90
2023-05-23T16:44:44.220Z,3.80
2023-05-23T16:47:13.492Z,3.50
2023-05-23T16:49:41.305Z,3.87
2023-05-23T16:52:09.159Z,3.83
2023-05-23T16:54:37.041Z,4.13
2023-05-23T16:57:05.672Z,3.70
2023-05-23T16:59:33.834Z,3.70
2023-05-23T17:02:01.747Z,4.27
2023-05-23T17:04:30.896Z,4.60
2023-05-23T17:06:58.824Z,4.57
2023-05-23T17:09:26.667Z,4.90
2023-05-23T17:11:54.569Z,4.50
2023-05-23T17:14:22.468Z,4.60
2023-05-23T17:16:50.268Z,4.30
2023-05-23T17:19:18.150Z,4.17
2023-05-23T17:21:47.402Z,4.50
2023-05-23T17:24:15.202Z,4.90
2023-05-23T17:26:43.030Z,3.73
2023-05-23T17:29:11.019Z,4.57
2023-05-23T17:31:38.942Z,4.20
2023-05-23T17:34:06.849Z,3.90
2023-05-23T17:36:35.123Z,4.00
2023-05-23T17:39:04.416Z,4.13
2023-05-23T17:41:32.285Z,4.07
2023-05-23T17:44:00.111Z,3.80
2023-05-23T17:46:27.998Z,4.60
2023-05-23T17:48:55.847Z,4.47
2023-05-23T17:51:23.645Z,4.10
2023-05-23T17:53:53.638Z,4.47
2023-05-23T17:56:24.749Z,3.57
2023-05-23T17:58:52.932Z,3.93
2023-05-23T18:01:20.871Z,4.53
2023-05-23T18:03:49.166Z,4.60
2023-05-23T18:06:17.060Z,4.53
2023-05-23T18:08:44.870Z,4.97
2023-05-23T18:11:13.243Z,5.13
2023-05-23T18:13:42.480Z,5.30
2023-05-23T18:16:10.328Z,5.70
2023-05-23T18:18:38.180Z,5.53
2023-05-23T18:21:07.096Z,5.50
2023-05-23T18:23:34.956Z,5.43
2023-05-23T18:26:02.843Z,6.53
2023-05-23T18:28:30.707Z,6.37
2023-05-23T18:30:59.904Z,5.73
2023-05-23T18:33:28.438Z,6.17
2023-05-23T18:35:56.382Z,6.23
2023-05-23T18:38:24.293Z,6.50
2023-05-23T18:40:52.134Z,6.70
2023-05-23T18:43:20.128Z,7.70
2023-05-23T18:45:47.944Z,7.60
2023-05-23T18:48:17.139Z,7.67
2023-05-23T18:50:45.107Z,7.40
2023-05-23T18:53:13.035Z,8.77
2023-05-23T18:55:40.847Z,8.27
2023-05-23T18:58:08.653Z,8.93
2023-05-23T19:00:36.453Z,8.07
2023-05-23T19:03:04.732Z,8.30
2023-05-23T19:05:34.040Z,8.47
2023-05-23T19:08:03.265Z,7.47
2023-05-23T19:10:31.069Z,7.57
2023-05-23T19:12:58.892Z,8.73
2023-05-23T19:15:26.720Z,7.87
2023-05-23T19:17:54.593Z,8.37
2023-05-23T19:20:22.448Z,7.67
2023-05-23T19:22:52.756Z,7.73
2023-05-23T19:25:21.542Z,8.07
2023-05-23T19:27:49.385Z,8.17
2023-05-23T19:30:17.359Z,8.23
2023-05-23T19:32:45.230Z,7.73
2023-05-23T19:35:16.336Z,7.83
2023-05-23T19:37:44.773Z,8.03
2023-05-23T19:40:14.475Z,7.40
2023-05-23T19:42:42.496Z,7.83
2023-05-23T19:45:11.767Z,8.10
2023-05-23T19:47:39.731Z,7.90
2023-05-23T19:50:09.534Z,8.60
2023-05-23T19:52:37.498Z,8.10
2023-05-23T19:55:06.622Z,8.30
2023-05-23T19:57:36.291Z,7.70
2023-05-23T20:00:05.696Z,8.47
2023-05-23T20:02:33.918Z,8.27
2023-05-23T20:05:01.794Z,7.87
2023-05-23T20:07:29.958Z,7.53
2023-05-23T20:09:58.103Z,7.87
2023-05-23T20:12:26.679Z,8.37
2023-05-23T20:14:55.881Z,7.90
2023-05-23T20:17:23.772Z,8.80
2023-05-23T20:19:51.598Z,9.13
2023-05-23T20:22:19.423Z,8.93
2023-05-23T20:24:47.669Z,9.83
2023-05-23T20:27:15.800Z,8.43
2023-05-23T20:29:46.906Z,9.53
2023-05-23T20:32:16.525Z,10.07
2023-05-23T20:34:44.340Z,9.90
2023-05-23T20:37:13.926Z,9.53
2023-05-23T20:39:42.307Z,9.27
2023-05-23T20:42:11.343Z,8.87
2023-05-23T20:44:39.313Z,9.63
2023-05-23T20:47:07.477Z,9.53
2023-05-23T20:49:37.426Z,9.93
2023-05-23T20:52:06.445Z,9.30
2023-05-23T20:54:35.266Z,9.37
2023-05-23T20:57:03.808Z,9.77
2023-05-23T20:59:31.629Z,10.10
2023-05-23T21:01:59.501Z,9.50
2023-05-23T21:04:27.322Z,9.97
2023-05-23T21:06:56.434Z,9.37
2023-05-23T21:09:24.254Z,10.10
2023-05-23T21:11:52.068Z,10.27
2023-05-23T21:14:19.877Z,10.50
2023-05-23T21:16:47.751Z,11.03
2023-05-23T21:19:15.921Z,11.20
2023-05-23T21:21:43.784Z,10.73
2023-05-23T21:24:14.204Z,11.10
2023-05-23T21:26:42.050Z,10.43
2023-05-23T21:29:09.924Z,10.87
2023-05-23T21:31:41.845Z,11.03
2023-05-23T21:34:22.431Z,11.37
2023-05-23T21:36:52.239Z,11.43
2023-05-23T21:39:21.485Z,10.80
2023-05-23T21:41:49.333Z,12.03
2023-05-23T21:44:18.782Z,11.20
2023-05-23T21:46:47.214Z,11.03
2023-05-23T21:49:15.500Z,11.33
2023-05-23T21:51:44.075Z,10.87
2023-05-23T21:54:11.931Z,12.00
2023-05-23T21:56:41.777Z,11.53
2023-05-23T21:59:09.693Z,11.60
2023-05-23T22:01:37.575Z,11.67
2023-05-23T22:04:05.844Z,11.47
2023-05-23T22:06:34.224Z,11.67
2023-05-23T22:09:02.028Z,10.50
2023-05-23T22:11:33.827Z,10.10
2023-05-23T22:14:03.364Z,10.70
2023-05-23T22:16:32.988Z,10.67
2023-05-23T22:19:02.143Z,9.93
2023-05-23T22:21:30.162Z,11.13
2023-05-23T22:23:58.618Z,10.63
2023-05-23T22:26:26.976Z,10.70
2023-05-23T22:28:54.932Z,9.63
2023-05-23T22:31:24.448Z,9.10
2023-05-23T22:33:52.521Z,10.13
2023-05-23T22:36:20.431Z,10.83
2023-05-23T22:38:48.329Z,10.37
2023-05-23T22:41:16.529Z,9.23
2023-05-23T22:43:44.407Z,9.63
2023-05-23T22:46:12.279Z,10.27
2023-05-23T22:48:41.679Z,9.27
2023-05-23T22:51:12.450Z,9.63
2023-05-23T22:53:41.175Z,9.47
2023-05-23T22:56:09.148Z,7.93
2023-05-23T22:58:36.960Z,8.87
2023-05-23T23:01:04.984Z,7.77
2023-05-23T23:03:33.001Z,8.67
2023-05-23T23:06:06.235Z,8.07
2023-05-23T23:08:34.321Z,8.60
2023-05-23T23:11:02.299Z,8.10
2023-05-23T23:13:30.219Z,8.13
2023-05-23T23:15:59.071Z,8.10
2023-05-23T23:18:27.277Z,8.00
2023-05-23T23:20:55.218Z,8.40
2023-05-23T23:23:24.427Z,7.83
2023-05-23T23:25:52.431Z,7.90
2023-05-23T23:28:20.801Z,8.83
2023-05-23T23:30:48.946Z,8.27
2023-05-23T23:33:16.848Z,7.90
2023-05-23T23:35:46.328Z,7.57
2023-05-23T23:38:14.261Z,7.70
2023-05-23T23:40:45.221Z,8.07
2023-05-23T23:43:13.096Z,7.27
2023-05-23T23:45:41.217Z,7.70
2023-05-23T23:48:09.142Z,6.20
2023-05-23T23:50:37.072Z,7.40
2023-05-23T23:53:04.911Z,7.03
2023-05-23T23:55:32.767Z,6.83
2023-05-23T23:58:02.011Z,6.07
